createdAt,value
2022-09-28T00:00:33.164Z,7.00
2022-09-28T00:05:48.944Z,7.00
2022-09-28T00:11:19.000Z,6.90
2022-09-28T00:22:19.295Z,7.00
2022-09-28T00:27:42.948Z,7.00
2022-09-28T00:32:59.795Z,7.00
2022-09-28T00:38:16.236Z,7.00
2022-09-28T00:43:38.463Z,7.10
2022-09-28T00:49:07.536Z,7.10
2022-09-28T00:54:17.568Z,7.00
2022-09-28T00:59:27.778Z,7.10
2022-09-28T01:04:52.096Z,7.10
2022-09-28T01:10:23.238Z,7.20
2022-09-28T01:16:18.287Z,7.20
2022-09-28T01:21:55.322Z,7.20
2022-09-28T01:27:15.313Z,7.30
2022-09-28T01:32:52.357Z,7.30
2022-09-28T01:38:06.301Z,7.40
2022-09-28T01:43:38.125Z,7.40
2022-09-28T01:48:56.550Z,7.50
2022-09-28T01:54:22.833Z,7.50
2022-09-28T01:59:33.289Z,7.40
2022-09-28T02:05:30.891Z,7.40
2022-09-28T02:11:22.894Z,7.50
2022-09-28T02:17:06.956Z,7.40
2022-09-28T02:23:01.969Z,7.40
2022-09-28T02:28:21.326Z,7.30
2022-09-28T02:34:04.270Z,7.20
2022-09-28T02:39:21.347Z,7.10
2022-09-28T02:44:46.348Z,7.00
2022-09-28T02:50:25.805Z,6.90
2022-09-28T03:01:57.349Z,6.60
2022-09-28T03:07:22.391Z,6.50
2022-09-28T03:12:46.866Z,6.60
2022-09-28T03:18:13.182Z,6.60
2022-09-28T03:23:30.757Z,6.60
2022-09-28T03:28:52.243Z,6.60
2022-09-28T03:34:09.938Z,6.60
2022-09-28T03:39:20.344Z,6.60
2022-09-28T03:44:30.238Z,6.50
2022-09-28T03:49:33.856Z,6.50
2022-09-28T03:54:37.301Z,6.40
2022-09-28T03:59:40.845Z,6.40
2022-09-28T04:04:52.086Z,6.30
2022-09-28T04:10:30.521Z,6.30
2022-09-28T04:16:02.824Z,6.20
2022-09-28T04:21:23.959Z,6.20
2022-09-28T04:26:53.778Z,6.20
2022-09-28T04:32:15.773Z,6.20
2022-09-28T04:37:52.933Z,6.20
2022-09-28T04:43:13.112Z,6.20
2022-09-28T04:48:32.463Z,6.20
2022-09-28T04:54:05.770Z,6.10
2022-09-28T04:59:16.001Z,6.20
2022-09-28T05:04:39.534Z,6.20
2022-09-28T05:09:44.781Z,6.30
2022-09-28T05:14:47.542Z,6.30
2022-09-28T05:19:51.161Z,6.30
2022-09-28T05:24:55.054Z,6.30
2022-09-28T05:29:59.614Z,6.30
2022-09-28T05:35:21.416Z,6.30
2022-09-28T05:40:27.418Z,6.40
2022-09-28T05:45:30.832Z,6.30
2022-09-28T05:50:33.548Z,6.40
2022-09-28T05:55:37.611Z,6.50
2022-09-28T06:00:40.311Z,6.50
2022-09-28T06:06:08.211Z,6.50
2022-09-28T06:11:39.087Z,6.60
2022-09-28T06:17:31.518Z,6.70
2022-09-28T06:23:23.898Z,6.70
2022-09-28T06:28:36.735Z,6.80
2022-09-28T06:34:03.418Z,6.90
2022-09-28T06:39:15.631Z,6.90
2022-09-28T06:44:24.918Z,7.00
2022-09-28T06:50:03.640Z,7.00
2022-09-28T06:55:33.787Z,7.10
2022-09-28T07:00:40.349Z,7.20
2022-09-28T07:06:06.308Z,7.10
2022-09-28T07:11:17.563Z,7.20
2022-09-28T07:17:13.735Z,7.30
2022-09-28T07:22:43.612Z,7.30
2022-09-28T07:28:04.338Z,7.40
2022-09-28T07:33:48.777Z,7.30
2022-09-28T07:39:08.900Z,7.40
2022-09-28T07:44:19.339Z,7.50
2022-09-28T07:49:29.882Z,7.50
2022-09-28T07:54:52.281Z,7.50
2022-09-28T08:00:21.444Z,7.60
2022-09-28T08:05:48.705Z,7.60
2022-09-28T08:11:21.450Z,7.60
2022-09-28T08:17:11.897Z,7.70
2022-09-28T08:22:43.772Z,7.70
2022-09-28T08:28:07.537Z,7.70
2022-09-28T08:33:42.508Z,7.80
2022-09-28T08:39:23.323Z,7.90
2022-09-28T08:44:58.682Z,7.90
2022-09-28T08:50:27.086Z,8.00
2022-09-28T08:55:55.012Z,8.10
2022-09-28T09:00:59.318Z,8.10
2022-09-28T09:06:33.925Z,8.20
2022-09-28T09:18:39.669Z,8.30
2022-09-28T09:24:27.504Z,8.40
2022-09-28T09:30:18.079Z,8.50
2022-09-28T09:35:31.475Z,8.60
2022-09-28T09:41:28.842Z,8.70
2022-09-28T09:47:43.278Z,8.70
2022-09-28T09:53:21.472Z,8.70
2022-09-28T09:59:00.555Z,8.60
2022-09-28T10:04:48.546Z,8.30
2022-09-28T10:10:29.074Z,8.00
2022-09-28T10:16:12.094Z,8.20
2022-09-28T10:21:24.781Z,8.30
2022-09-28T10:27:10.179Z,8.30
2022-09-28T10:33:07.778Z,8.40
2022-09-28T10:38:18.951Z,8.40
2022-09-28T10:44:17.642Z,8.20
2022-09-28T10:49:46.808Z,8.40
2022-09-28T10:54:55.184Z,8.60
2022-09-28T10:59:59.400Z,8.60
2022-09-28T11:05:11.549Z,8.50
2022-09-28T11:10:32.836Z,8.80
2022-09-28T11:15:45.093Z,8.90
2022-09-28T11:27:38.998Z,8.90
2022-09-28T11:33:05.870Z,9.00
2022-09-28T11:39:04.505Z,9.00
2022-09-28T11:44:59.161Z,9.00
2022-09-28T11:50:24.129Z,9.00
2022-09-28T11:56:27.660Z,8.90
2022-09-28T12:02:10.231Z,8.70
2022-09-28T12:07:50.830Z,8.70
2022-09-28T12:13:44.781Z,8.80
2022-09-28T12:19:28.580Z,8.90
2022-09-28T12:24:40.119Z,8.80
2022-09-28T12:29:48.649Z,8.70
2022-09-28T12:34:51.365Z,8.70
2022-09-28T12:40:09.237Z,8.60
2022-09-28T12:46:06.631Z,8.80
2022-09-28T12:52:02.413Z,8.90
2022-09-28T12:57:49.218Z,9.10
2022-09-28T13:03:44.469Z,8.80
2022-09-28T13:09:31.347Z,9.10
2022-09-28T13:14:56.979Z,9.20
2022-09-28T13:20:05.602Z,9.50
2022-09-28T13:25:21.306Z,9.60
2022-09-28T13:30:25.808Z,9.80
2022-09-28T13:35:29.017Z,9.80
2022-09-28T13:41:44.191Z,9.80
2022-09-28T13:47:26.953Z,9.90
2022-09-28T13:53:08.391Z,10.10
2022-09-28T13:58:57.738Z,10.00
2022-09-28T14:04:36.047Z,10.10
2022-09-28T14:09:47.919Z,10.00
2022-09-28T14:14:52.461Z,9.90
2022-09-28T14:20:06.778Z,9.80
2022-09-28T14:25:26.612Z,9.80
2022-09-28T14:30:38.246Z,9.70
2022-09-28T14:35:58.810Z,9.60
2022-09-28T14:41:45.533Z,9.10
2022-09-28T14:47:43.127Z,9.00
2022-09-28T14:53:13.606Z,9.00
2022-09-28T14:58:45.326Z,9.20
2022-09-28T15:09:36.427Z,9.70
2022-09-28T15:15:02.504Z,10.00
2022-09-28T15:20:43.718Z,10.10
2022-09-28T15:26:08.284Z,10.10
2022-09-28T15:31:39.080Z,10.10
2022-09-28T15:37:23.499Z,10.30
2022-09-28T15:42:59.603Z,10.60
2022-09-28T15:48:50.805Z,10.60
2022-09-28T15:54:29.217Z,10.20
2022-09-28T15:59:39.504Z,10.10
2022-09-28T16:05:05.412Z,10.10
2022-09-28T16:10:35.469Z,9.70
2022-09-28T16:15:53.911Z,9.80
2022-09-28T16:21:32.503Z,9.90
2022-09-28T16:26:55.984Z,9.90
2022-09-28T16:32:46.860Z,9.90
2022-09-28T16:38:20.362Z,9.90
2022-09-28T16:49:16.815Z,9.70
2022-09-28T16:54:44.617Z,9.50
2022-09-28T16:59:47.236Z,9.30
2022-09-28T17:05:04.981Z,9.10
2022-09-28T17:10:17.631Z,9.00
2022-09-28T17:15:20.508Z,8.90
2022-09-28T17:20:29.903Z,8.70
2022-09-28T17:25:32.821Z,8.60
2022-09-28T17:30:35.548Z,8.50
2022-09-28T17:35:39.778Z,8.50
2022-09-28T17:40:45.036Z,8.40
2022-09-28T17:45:59.990Z,8.30
2022-09-28T17:51:23.767Z,8.20
2022-09-28T17:56:32.763Z,8.20
2022-09-28T18:02:04.561Z,8.10
2022-09-28T18:07:14.864Z,8.00
2022-09-28T18:12:30.781Z,8.00
2022-09-28T18:18:00.586Z,7.90
2022-09-28T18:23:08.089Z,7.90
2022-09-28T18:28:25.707Z,7.90
2022-09-28T18:33:32.244Z,7.90
2022-09-28T18:38:44.621Z,7.80
2022-09-28T18:44:05.188Z,7.70
2022-09-28T18:49:09.145Z,7.60
2022-09-28T18:54:19.522Z,7.60
2022-09-28T18:59:29.532Z,7.60
2022-09-28T19:04:54.559Z,7.60
2022-09-28T19:10:06.063Z,7.60
2022-09-28T19:15:12.942Z,7.60
2022-09-28T19:20:16.383Z,7.60
2022-09-28T19:25:19.074Z,7.60
2022-09-28T19:30:21.841Z,7.60
2022-09-28T19:35:27.719Z,7.60
2022-09-28T19:40:30.833Z,7.60
2022-09-28T19:45:36.184Z,7.50
2022-09-28T19:50:39.819Z,7.50
2022-09-28T19:55:42.849Z,7.50
2022-09-28T20:00:45.531Z,7.40
2022-09-28T20:06:13.810Z,7.40
2022-09-28T20:11:46.589Z,7.50
2022-09-28T20:17:09.241Z,7.40
2022-09-28T20:22:27.136Z,7.30
2022-09-28T20:28:03.650Z,7.30
2022-09-28T20:33:28.599Z,7.20
2022-09-28T20:38:58.975Z,7.00
2022-09-28T20:44:14.555Z,7.00
2022-09-28T20:49:24.845Z,6.90
2022-09-28T20:54:36.703Z,6.80
2022-09-28T20:59:40.330Z,6.70
2022-09-28T21:04:50.587Z,6.60
2022-09-28T21:09:53.802Z,6.50
2022-09-28T21:15:05.535Z,6.40
2022-09-28T21:20:09.935Z,6.30
2022-09-28T21:25:12.628Z,6.30
2022-09-28T21:30:15.491Z,6.20
2022-09-28T21:35:18.174Z,6.10
2022-09-28T21:40:21.234Z,6.10
2022-09-28T21:45:27.277Z,6.10
2022-09-28T21:50:31.086Z,6.00
2022-09-28T21:55:33.839Z,6.10
2022-09-28T22:00:36.568Z,6.00
2022-09-28T22:05:48.308Z,6.00
2022-09-28T22:11:31.889Z,5.90
2022-09-28T22:16:46.374Z,5.90
2022-09-28T22:22:19.137Z,5.90
2022-09-28T22:27:37.612Z,5.90
2022-09-28T22:32:55.773Z,5.90
2022-09-28T22:38:17.267Z,5.90
2022-09-28T22:43:34.295Z,5.90
2022-09-28T22:49:00.350Z,5.80
2022-09-28T22:54:14.302Z,5.70
2022-09-28T22:59:22.949Z,5.70
2022-09-28T23:04:40.742Z,5.70
2022-09-28T23:09:44.309Z,5.60
2022-09-28T23:14:46.998Z,5.60
2022-09-28T23:19:49.691Z,5.50
2022-09-28T23:24:52.585Z,5.40
2022-09-28T23:29:55.291Z,5.40
2022-09-28T23:34:58.021Z,5.20
2022-09-28T23:40:00.892Z,5.20
2022-09-28T23:45:03.760Z,5.10
2022-09-28T23:50:07.091Z,5.00
2022-09-28T23:55:09.934Z,4.90
